Time;durP1;ratioP1;P1;durP2;ratioP2;P2;SDS_P1;SDS_P2;PMS_P1;PMS_P2;Temp;Humidity;BMP_temperature;BMP_pressure;BME280_temperature;BME280_humidity;BME280_pressure;Samples;Min_cycle;Max_cycle;Signal;HPM_P1;HPM_P2
2023/03/02 00:01:25;;;;;;;0.30;0.30;;;6.30;94.30;;;;;;5028545;28;20230;-72
2023/03/02 00:03:51;;;;;;;0.60;0.37;;;6.30;94.40;;;;;;5027823;28;20187;-72
2023/03/02 00:06:17;;;;;;;0.50;0.37;;;6.30;94.40;;;;;;5033144;28;20180;-72
2023/03/02 00:08:45;;;;;;;0.43;0.40;;;6.30;94.50;;;;;;5030087;28;20286;-72
2023/03/02 00:11:14;;;;;;;0.50;0.50;;;6.30;94.50;;;;;;5027924;28;20180;-73
2023/03/02 00:13:40;;;;;;;0.40;0.40;;;6.30;94.50;;;;;;5025141;28;21030;-73
2023/03/02 00:16:06;;;;;;;2.83;0.40;;;6.30;94.40;;;;;;5025406;28;20729;-73
2023/03/02 00:18:32;;;;;;;0.37;0.37;;;6.40;94.40;;;;;;5029017;28;20571;-73
2023/03/02 00:20:58;;;;;;;1.03;0.50;;;6.40;94.50;;;;;;5029607;28;20187;-71
2023/03/02 00:23:23;;;;;;;0.63;0.30;;;6.40;94.40;;;;;;5028701;28;20520;-73
2023/03/02 00:25:49;;;;;;;0.40;0.40;;;6.40;94.40;;;;;;5032681;28;20179;-73
2023/03/02 00:28:15;;;;;;;0.40;0.40;;;6.40;94.30;;;;;;5027443;28;20955;-72
2023/03/02 00:30:40;;;;;;;0.77;0.40;;;6.40;94.30;;;;;;5028031;28;20211;-71
2023/03/02 00:33:06;;;;;;;0.27;0.27;;;6.50;94.20;;;;;;5030161;28;20192;-72
2023/03/02 00:35:37;;;;;;;0.80;0.57;;;6.50;94.10;;;;;;5026818;28;20220;-72
2023/03/02 00:38:02;;;;;;;0.40;0.40;;;6.50;93.90;;;;;;5028164;28;20190;-72
2023/03/02 00:40:28;;;;;;;0.40;0.40;;;6.50;93.70;;;;;;5031200;28;20188;-72
2023/03/02 00:42:53;;;;;;;0.30;0.23;;;6.50;93.60;;;;;;5026580;28;20192;-72
2023/03/02 00:45:19;;;;;;;0.30;0.30;;;6.50;93.60;;;;;;5034711;28;20212;-72
2023/03/02 00:47:45;;;;;;;0.30;0.30;;;6.50;93.60;;;;;;5030309;28;20231;-72
2023/03/02 00:50:10;;;;;;;0.80;0.33;;;6.50;93.50;;;;;;5031887;28;20176;-72
2023/03/02 00:52:36;;;;;;;3.63;0.60;;;6.40;93.70;;;;;;5030710;28;20184;-71
2023/03/02 00:55:02;;;;;;;0.30;0.30;;;6.40;93.80;;;;;;5030057;28;20177;-72
2023/03/02 00:57:27;;;;;;;2.00;0.30;;;6.40;93.80;;;;;;5031962;28;20183;-72
2023/03/02 00:59:53;;;;;;;0.60;0.60;;;6.40;93.70;;;;;;5026530;28;21608;-72
2023/03/02 01:02:20;;;;;;;0.37;0.37;;;6.40;93.90;;;;;;5029433;28;20199;-72
2023/03/02 01:04:47;;;;;;;0.47;0.47;;;6.30;93.80;;;;;;5030117;28;20180;-72
2023/03/02 01:07:15;;;;;;;0.20;0.20;;;6.30;93.90;;;;;;5026398;28;20704;-71
2023/03/02 01:09:42;;;;;;;0.40;0.40;;;6.30;94.00;;;;;;5025461;28;20227;-72
2023/03/02 01:12:10;;;;;;;0.20;0.20;;;6.30;94.00;;;;;;5027467;28;20196;-72
2023/03/02 01:14:40;;;;;;;0.40;0.30;;;6.30;93.90;;;;;;5024295;28;20190;-71
2023/03/02 01:17:06;;;;;;;0.20;0.20;;;6.30;93.90;;;;;;5028776;28;20180;-72
2023/03/02 01:19:33;;;;;;;0.50;0.20;;;6.30;93.80;;;;;;5032565;28;20245;-72
2023/03/02 01:21:58;;;;;;;0.20;0.20;;;6.20;93.80;;;;;;5023339;28;20211;-71
2023/03/02 01:24:24;;;;;;;0.20;0.20;;;6.20;93.80;;;;;;5023564;28;20218;-72
2023/03/02 01:26:50;;;;;;;0.20;0.20;;;6.10;93.80;;;;;;5025784;28;20188;-72
2023/03/02 01:29:16;;;;;;;0.33;0.33;;;6.10;93.80;;;;;;5026759;28;20215;-72
2023/03/02 01:31:41;;;;;;;0.20;0.20;;;6.10;93.80;;;;;;5026760;28;20212;-72
2023/03/02 01:34:07;;;;;;;0.17;0.17;;;6.00;94.00;;;;;;5031795;28;20192;-72
2023/03/02 01:36:33;;;;;;;0.20;0.20;;;6.00;94.20;;;;;;5026998;28;20180;-72
2023/03/02 01:38:59;;;;;;;0.20;0.20;;;6.00;94.20;;;;;;5026770;28;20691;-72
2023/03/02 01:41:25;;;;;;;0.10;0.10;;;6.00;94.50;;;;;;5033681;28;20177;-71
2023/03/02 01:43:50;;;;;;;0.37;0.37;;;5.90;94.50;;;;;;5029334;28;20270;-71
2023/03/02 01:46:24;;;;;;;0.23;0.20;;;5.90;94.60;;;;;;5030086;28;20177;-71
2023/03/02 01:48:55;;;;;;;0.30;0.30;;;5.90;94.70;;;;;;5028383;28;20719;-71
2023/03/02 01:51:23;;;;;;;1.20;0.13;;;5.90;94.60;;;;;;5020874;28;20939;-71
2023/03/02 01:53:57;;;;;;;0.10;0.10;;;5.90;94.60;;;;;;5027978;28;20222;-72
2023/03/02 01:56:31;;;;;;;0.20;0.20;;;5.80;94.70;;;;;;5029865;28;20192;-72
2023/03/02 01:59:02;;;;;;;0.20;0.20;;;5.80;94.80;;;;;;5029729;28;20668;-71
2023/03/02 02:01:30;;;;;;;0.10;0.10;;;5.80;94.70;;;;;;5025827;28;20172;-72
2023/03/02 02:03:56;;;;;;;0.17;0.17;;;5.80;94.60;;;;;;5031571;28;20188;-72
2023/03/02 02:06:28;;;;;;;0.10;0.10;;;5.80;94.80;;;;;;5031582;28;20583;-72
2023/03/02 02:08:56;;;;;;;0.30;0.30;;;5.80;94.80;;;;;;5034107;28;20270;-72
2023/03/02 02:11:22;;;;;;;0.20;0.20;;;5.80;95.00;;;;;;5034110;28;20218;-73
2023/03/02 02:13:48;;;;;;;0.10;0.10;;;5.80;95.00;;;;;;5026173;28;20239;-72
2023/03/02 02:16:14;;;;;;;0.27;0.27;;;5.80;95.00;;;;;;5033684;28;20188;-73
2023/03/02 02:18:41;;;;;;;0.20;0.20;;;5.80;95.10;;;;;;5030910;28;20193;-72
2023/03/02 02:21:07;;;;;;;0.20;0.20;;;5.80;95.20;;;;;;5034014;28;20643;-72
2023/03/02 02:23:44;;;;;;;0.10;0.10;;;5.80;95.20;;;;;;5032819;28;20238;-71
2023/03/02 02:26:17;;;;;;;0.20;0.20;;;5.80;95.20;;;;;;5025070;28;20180;-72
2023/03/02 02:28:47;;;;;;;0.20;0.20;;;5.80;95.30;;;;;;5032393;28;20595;-71
2023/03/02 02:31:34;;;;;;;0.30;0.30;;;5.80;95.20;;;;;;5032342;28;20202;-71
2023/03/02 02:34:27;;;;;;;0.10;0.10;;;5.70;95.20;;;;;;5030204;28;20278;-72
2023/03/02 02:37:02;;;;;;;0.20;0.20;;;5.70;95.30;;;;;;5031132;28;20584;-72
2023/03/02 02:39:31;;;;;;;0.20;0.20;;;5.70;95.50;;;;;;5033930;28;20179;-71
2023/03/02 02:42:00;;;;;;;0.73;0.30;;;5.70;95.50;;;;;;5029790;28;20734;-72
2023/03/02 02:44:26;;;;;;;0.13;0.10;;;5.70;95.50;;;;;;5029400;28;21062;-72
2023/03/02 02:46:52;;;;;;;0.20;0.20;;;5.70;95.50;;;;;;5033240;28;20279;-72
2023/03/02 02:49:34;;;;;;;0.20;0.20;;;5.70;95.40;;;;;;5029055;28;20350;-71
2023/03/02 02:51:59;;;;;;;0.20;0.20;;;5.70;95.30;;;;;;5023705;28;20199;-72
2023/03/02 02:54:26;;;;;;;0.20;0.20;;;5.70;95.60;;;;;;5016032;28;20184;-69
2023/03/02 02:56:53;;;;;;;0.30;0.20;;;5.70;95.50;;;;;;5016016;28;20180;-73
2023/03/02 02:59:27;;;;;;;0.20;0.20;;;5.60;95.60;;;;;;5016995;28;20262;-72
2023/03/02 03:01:54;;;;;;;0.10;0.10;;;5.60;95.60;;;;;;5034544;28;20690;-71
2023/03/02 03:04:24;;;;;;;0.20;0.20;;;5.60;95.50;;;;;;5027545;28;20258;-71
2023/03/02 03:06:53;;;;;;;0.10;0.10;;;5.60;95.50;;;;;;5030569;28;20219;-72
2023/03/02 03:09:19;;;;;;;0.20;0.20;;;5.60;95.50;;;;;;5034520;28;20207;-72
2023/03/02 03:11:49;;;;;;;0.10;0.10;;;5.60;95.50;;;;;;5031677;28;20188;-73
2023/03/02 03:14:18;;;;;;;0.10;0.10;;;5.60;95.70;;;;;;5030378;28;20184;-72
2023/03/02 03:16:47;;;;;;;0.10;0.10;;;5.60;95.60;;;;;;5033159;28;20211;-73
2023/03/02 03:19:30;;;;;;;0.10;0.10;;;5.60;95.60;;;;;;5030112;28;20640;-73
2023/03/02 03:21:58;;;;;;;0.20;0.20;;;5.60;95.60;;;;;;5033247;28;20192;-73
2023/03/02 03:24:26;;;;;;;0.20;0.20;;;5.60;95.70;;;;;;5030349;28;20738;-73
2023/03/02 03:26:55;;;;;;;0.20;0.20;;;5.60;95.60;;;;;;5028952;28;20191;-72
2023/03/02 03:29:24;;;;;;;0.20;0.20;;;5.60;95.70;;;;;;5030970;28;20669;-73
2023/03/02 03:31:51;;;;;;;0.20;0.20;;;5.60;95.60;;;;;;5030659;28;20284;-71
2023/03/02 03:34:16;;;;;;;0.20;0.20;;;5.60;95.70;;;;;;5030903;28;20203;-71
2023/03/02 03:36:42;;;;;;;1.40;0.23;;;5.70;95.60;;;;;;5028040;28;20184;-71
2023/03/02 03:39:09;;;;;;;0.40;0.20;;;5.70;95.60;;;;;;5025594;28;20208;-71
2023/03/02 03:41:35;;;;;;;0.20;0.20;;;5.70;95.60;;;;;;5030845;28;20644;-71
2023/03/02 03:44:02;;;;;;;0.10;0.10;;;5.70;95.50;;;;;;5027704;28;20787;-71
2023/03/02 03:46:28;;;;;;;0.20;0.20;;;5.80;95.30;;;;;;5033396;28;20183;-71
2023/03/02 03:48:54;;;;;;;0.30;0.30;;;5.70;95.30;;;;;;5030280;28;20215;-71
2023/03/02 03:51:20;;;;;;;0.20;0.20;;;5.80;95.30;;;;;;5028300;28;20192;-73
2023/03/02 03:53:58;;;;;;;0.20;0.20;;;5.80;95.10;;;;;;5031472;28;21058;-71
2023/03/02 03:56:34;;;;;;;0.17;0.17;;;5.80;95.00;;;;;;5026045;28;20184;-71
2023/03/02 03:59:05;;;;;;;0.10;0.10;;;5.80;95.00;;;;;;5032148;28;20222;-71
2023/03/02 04:01:53;;;;;;;0.20;0.20;;;5.80;95.00;;;;;;5030969;28;20734;-72
2023/03/02 04:04:28;;;;;;;0.50;0.20;;;5.80;95.20;;;;;;5032437;28;20179;-71
2023/03/02 04:06:53;;;;;;;0.23;0.23;;;5.80;95.10;;;;;;5028150;28;20184;-73
2023/03/02 04:09:20;;;;;;;0.30;0.30;;;5.80;95.10;;;;;;5029763;28;21035;-72
2023/03/02 04:11:48;;;;;;;0.10;0.10;;;5.80;95.20;;;;;;5024081;28;20271;-74
2023/03/02 04:14:15;;;;;;;0.43;0.10;;;5.80;95.20;;;;;;5023596;28;20212;-73
2023/03/02 04:16:41;;;;;;;0.10;0.10;;;5.80;95.20;;;;;;5024961;28;20181;-73
2023/03/02 04:19:08;;;;;;;0.30;0.30;;;5.80;95.30;;;;;;5030901;28;20180;-73
2023/03/02 04:21:43;;;;;;;0.10;0.10;;;5.80;95.30;;;;;;5028082;28;20571;-73
2023/03/02 04:24:10;;;;;;;0.20;0.20;;;5.80;95.20;;;;;;5028605;28;20196;-72
2023/03/02 04:26:37;;;;;;;0.10;0.10;;;5.80;95.20;;;;;;5027123;28;20172;-73
2023/03/02 04:29:03;;;;;;;0.10;0.10;;;5.80;95.30;;;;;;5030941;28;20206;-74
2023/03/02 04:31:31;;;;;;;0.10;0.10;;;5.80;95.40;;;;;;5029496;28;20198;-73
2023/03/02 04:33:58;;;;;;;0.20;0.20;;;5.80;95.40;;;;;;5027125;28;20188;-73
2023/03/02 04:36:24;;;;;;;0.20;0.20;;;5.80;95.70;;;;;;5027888;28;20179;-73
2023/03/02 04:38:50;;;;;;;0.20;0.20;;;5.80;95.70;;;;;;5030607;28;21165;-73
2023/03/02 04:41:16;;;;;;;0.20;0.20;;;5.80;95.60;;;;;;5031654;28;20184;-71
2023/03/02 04:43:42;;;;;;;0.20;0.20;;;5.80;95.70;;;;;;5025117;28;20180;-71
2023/03/02 04:46:13;;;;;;;0.30;0.30;;;5.80;96.00;;;;;;5032542;28;20193;-72
2023/03/02 04:48:38;;;;;;;0.20;0.20;;;5.80;95.80;;;;;;5028131;28;20210;-72
2023/03/02 04:51:04;;;;;;;0.20;0.20;;;5.70;96.40;;;;;;5028648;28;20542;-71
2023/03/02 04:53:30;;;;;;;0.20;0.20;;;5.70;96.50;;;;;;5032475;28;20181;-71
2023/03/02 04:55:56;;;;;;;0.23;0.23;;;5.70;96.60;;;;;;5028216;28;20195;-71
2023/03/02 04:58:21;;;;;;;0.27;0.27;;;5.70;96.60;;;;;;5024759;28;20191;-72
2023/03/02 05:00:47;;;;;;;0.40;0.40;;;5.80;96.40;;;;;;5028520;28;20191;-71
2023/03/02 05:03:13;;;;;;;0.20;0.20;;;5.70;96.50;;;;;;5031149;28;20184;-71
2023/03/02 05:05:38;;;;;;;0.43;0.43;;;5.70;96.50;;;;;;5031995;28;20186;-72
2023/03/02 05:08:04;;;;;;;0.20;0.20;;;5.70;96.70;;;;;;5026763;28;21687;-72
2023/03/02 05:10:30;;;;;;;0.20;0.20;;;5.70;96.70;;;;;;5025975;28;20188;-76
2023/03/02 05:13:03;;;;;;;0.30;0.30;;;5.60;97.00;;;;;;5029827;28;20195;-73
2023/03/02 05:15:35;;;;;;;0.20;0.20;;;5.60;97.20;;;;;;5026560;28;20930;-74
2023/03/02 05:18:02;;;;;;;0.83;0.40;;;5.50;97.40;;;;;;5026367;28;20768;-73
2023/03/02 05:20:30;;;;;;;0.30;0.30;;;5.60;97.40;;;;;;5031345;28;20184;-72
2023/03/02 05:22:58;;;;;;;0.20;0.20;;;5.60;97.30;;;;;;5030572;28;20700;-72
2023/03/02 05:25:26;;;;;;;0.40;0.40;;;5.60;97.50;;;;;;5031338;28;20798;-74
2023/03/02 05:27:51;;;;;;;0.30;0.30;;;5.60;97.60;;;;;;5032554;28;20216;-74
2023/03/02 05:30:18;;;;;;;1.60;0.40;;;5.60;97.70;;;;;;5033197;28;20187;-73
2023/03/02 05:32:45;;;;;;;0.83;0.60;;;5.60;97.50;;;;;;5033294;28;20181;-75
2023/03/02 05:35:10;;;;;;;0.30;0.30;;;5.60;97.50;;;;;;5030479;28;20180;-75
2023/03/02 05:37:40;;;;;;;0.20;0.20;;;5.70;97.70;;;;;;5031570;28;20195;-75
2023/03/02 05:40:08;;;;;;;0.30;0.30;;;5.70;97.50;;;;;;5034044;28;20556;-74
2023/03/02 05:42:34;;;;;;;1.80;0.40;;;5.70;97.50;;;;;;5036729;28;20649;-74
2023/03/02 05:45:01;;;;;;;0.40;0.40;;;5.80;97.60;;;;;;5035290;28;20179;-73
2023/03/02 05:47:27;;;;;;;0.60;0.60;;;5.80;97.40;;;;;;5028245;28;20832;-74
2023/03/02 05:49:52;;;;;;;0.40;0.40;;;5.80;97.30;;;;;;5032406;28;20289;-75
2023/03/02 05:52:18;;;;;;;0.43;0.43;;;5.90;97.20;;;;;;5032990;28;20271;-73
2023/03/02 05:54:44;;;;;;;0.47;0.47;;;5.90;97.20;;;;;;5028399;28;20298;-72
2023/03/02 05:57:09;;;;;;;0.40;0.40;;;5.90;97.20;;;;;;5031154;28;20665;-72
2023/03/02 05:59:35;;;;;;;0.40;0.40;;;6.00;97.10;;;;;;5033053;28;20657;-78
2023/03/02 06:02:01;;;;;;;0.50;0.50;;;6.00;96.70;;;;;;5032903;28;20188;-74
2023/03/02 06:04:27;;;;;;;0.40;0.40;;;6.00;96.30;;;;;;5030370;28;20185;-74
2023/03/02 06:06:52;;;;;;;0.50;0.50;;;6.00;96.40;;;;;;5029467;28;20176;-72
2023/03/02 06:09:18;;;;;;;1.13;1.03;;;6.10;96.00;;;;;;5029226;28;20208;-73
2023/03/02 06:11:44;;;;;;;0.70;0.70;;;6.10;95.80;;;;;;5024903;28;20197;-74
2023/03/02 06:14:09;;;;;;;0.90;0.80;;;6.10;95.70;;;;;;5029726;28;20810;-74
2023/03/02 06:16:36;;;;;;;0.50;0.50;;;6.10;95.40;;;;;;5032501;28;21526;-73
2023/03/02 06:19:02;;;;;;;0.30;0.30;;;6.10;95.60;;;;;;5031085;28;20721;-74
2023/03/02 06:21:27;;;;;;;0.60;0.60;;;6.00;95.70;;;;;;5029555;28;20184;-74
2023/03/02 06:23:53;;;;;;;0.47;0.47;;;6.10;95.90;;;;;;5038590;28;20199;-74
2023/03/02 06:26:18;;;;;;;0.40;0.40;;;6.10;95.90;;;;;;5029334;28;20185;-73
2023/03/02 06:28:44;;;;;;;0.43;0.43;;;6.10;95.80;;;;;;5021251;28;20209;-73
2023/03/02 06:31:10;;;;;;;0.70;0.70;;;6.20;95.80;;;;;;5026437;28;20301;-73
2023/03/02 06:33:35;;;;;;;0.53;0.53;;;6.30;95.50;;;;;;5028457;28;20231;-73
2023/03/02 06:36:01;;;;;;;0.53;0.50;;;6.30;95.50;;;;;;5027701;28;20696;-73
2023/03/02 06:38:27;;;;;;;0.90;0.53;;;6.30;95.40;;;;;;5032537;28;20218;-73
2023/03/02 06:40:52;;;;;;;0.70;0.70;;;6.40;95.00;;;;;;5030580;28;20186;-73
2023/03/02 06:43:18;;;;;;;0.47;0.47;;;6.40;95.10;;;;;;5029075;28;20736;-73
2023/03/02 06:45:44;;;;;;;0.90;0.90;;;6.40;95.20;;;;;;5029367;28;20550;-72
2023/03/02 06:48:10;;;;;;;0.80;0.80;;;6.50;95.20;;;;;;5031057;28;20222;-74
2023/03/02 06:50:36;;;;;;;0.70;0.70;;;6.50;95.20;;;;;;5030296;28;21007;-73
2023/03/02 06:53:01;;;;;;;0.60;0.60;;;6.60;95.00;;;;;;5031695;28;20184;-72
2023/03/02 06:55:27;;;;;;;0.77;0.60;;;6.60;95.00;;;;;;5029718;28;20300;-74
2023/03/02 06:57:53;;;;;;;1.43;0.60;;;6.70;94.60;;;;;;5029334;28;20679;-73
2023/03/02 07:00:24;;;;;;;0.87;0.87;;;6.70;94.40;;;;;;5030037;28;20460;-72
2023/03/02 07:02:51;;;;;;;0.67;0.67;;;6.70;94.50;;;;;;5025556;28;20250;-74
2023/03/02 07:05:18;;;;;;;0.83;0.83;;;6.70;94.30;;;;;;5028206;28;20266;-73
2023/03/02 07:07:44;;;;;;;0.90;0.90;;;6.80;94.00;;;;;;5028764;28;20514;-73
2023/03/02 07:10:12;;;;;;;0.83;0.70;;;6.80;93.90;;;;;;5030703;28;20203;-74
2023/03/02 07:12:38;;;;;;;0.77;0.77;;;6.90;93.80;;;;;;5028530;28;20199;-74
2023/03/02 07:15:09;;;;;;;2.80;0.67;;;6.90;93.90;;;;;;5029918;28;20279;-73
2023/03/02 07:17:35;;;;;;;0.77;0.77;;;7.00;93.70;;;;;;5032464;28;20364;-73
2023/03/02 07:20:04;;;;;;;0.70;0.63;;;7.00;93.30;;;;;;5030887;28;20275;-74
2023/03/02 07:22:30;;;;;;;0.97;0.97;;;7.10;93.10;;;;;;5030594;28;20672;-74
2023/03/02 07:24:55;;;;;;;1.53;1.10;;;7.10;93.00;;;;;;5032723;28;21017;-74
2023/03/02 07:27:21;;;;;;;0.80;0.80;;;7.10;92.80;;;;;;5028855;28;20186;-74
2023/03/02 07:29:47;;;;;;;2.80;0.50;;;7.20;92.50;;;;;;5022665;28;20208;-74
2023/03/02 07:32:12;;;;;;;0.93;0.93;;;7.20;92.20;;;;;;5025485;28;20184;-72
2023/03/02 07:34:38;;;;;;;0.83;0.83;;;7.30;92.00;;;;;;5029059;28;20246;-73
2023/03/02 07:37:04;;;;;;;0.90;0.87;;;7.30;91.70;;;;;;5031720;28;20211;-74
2023/03/02 07:39:30;;;;;;;0.57;0.57;;;7.30;91.70;;;;;;5029565;28;20693;-74
2023/03/02 07:41:59;;;;;;;0.93;0.43;;;7.40;91.90;;;;;;5033754;28;20271;-74
2023/03/02 07:44:26;;;;;;;0.53;0.53;;;7.40;91.70;;;;;;5027965;28;20176;-72
2023/03/02 07:46:52;;;;;;;0.50;0.50;;;7.40;91.60;;;;;;5027244;28;20254;-72
2023/03/02 07:49:17;;;;;;;0.73;0.73;;;7.40;91.50;;;;;;5025186;28;20196;-73
2023/03/02 07:51:43;;;;;;;0.83;0.67;;;7.40;91.60;;;;;;5030863;28;20180;-72
2023/03/02 07:54:09;;;;;;;0.50;0.50;;;7.40;91.20;;;;;;5027888;28;20267;-72
2023/03/02 07:56:34;;;;;;;0.57;0.57;;;7.50;91.30;;;;;;5027978;28;20181;-72
2023/03/02 07:59:02;;;;;;;0.77;0.60;;;7.50;91.20;;;;;;5029553;28;20287;-74
2023/03/02 08:01:28;;;;;;;0.60;0.60;;;7.50;91.20;;;;;;5030189;28;20550;-74
2023/03/02 08:03:54;;;;;;;0.70;0.70;;;7.40;91.50;;;;;;5032114;28;20190;-74
2023/03/02 08:06:19;;;;;;;0.67;0.67;;;7.50;91.70;;;;;;5023190;28;20270;-74
2023/03/02 08:08:45;;;;;;;0.63;0.53;;;7.50;91.30;;;;;;5027572;28;20250;-74
2023/03/02 08:11:14;;;;;;;0.50;0.50;;;7.50;91.40;;;;;;5025032;28;20199;-73
2023/03/02 08:13:41;;;;;;;0.70;0.70;;;7.50;91.50;;;;;;5025882;28;20235;-73
2023/03/02 08:16:09;;;;;;;0.63;0.63;;;7.50;91.60;;;;;;5026701;28;20180;-72
2023/03/02 08:18:35;;;;;;;0.70;0.70;;;7.50;91.50;;;;;;5028080;28;20254;-73
2023/03/02 08:21:01;;;;;;;0.80;0.80;;;7.50;91.40;;;;;;5029106;28;20186;-73
2023/03/02 08:23:27;;;;;;;1.20;1.10;;;7.50;91.20;;;;;;5027834;28;20212;-74
2023/03/02 08:25:54;;;;;;;0.73;0.73;;;7.50;91.20;;;;;;5032045;28;20191;-74
2023/03/02 08:28:21;;;;;;;0.87;0.87;;;7.60;91.20;;;;;;5029964;28;20747;-74
2023/03/02 08:31:00;;;;;;;0.87;0.87;;;7.60;91.10;;;;;;5026847;28;20247;-74
2023/03/02 08:33:27;;;;;;;0.70;0.70;;;7.80;91.00;;;;;;5028184;28;20256;-74
2023/03/02 08:36:05;;;;;;;1.77;0.90;;;7.90;90.90;;;;;;5032304;28;21826;-73
2023/03/02 08:38:31;;;;;;;0.97;0.97;;;7.90;90.90;;;;;;5033176;28;20286;-74
2023/03/02 08:40:57;;;;;;;0.50;0.50;;;8.00;90.80;;;;;;5032194;28;20605;-74
2023/03/02 08:43:24;;;;;;;0.90;0.90;;;8.00;90.40;;;;;;5025245;28;20184;-74
2023/03/02 08:45:56;;;;;;;1.47;0.90;;;8.10;90.60;;;;;;5027231;28;20195;-74
2023/03/02 08:48:23;;;;;;;0.70;0.53;;;8.20;90.50;;;;;;5029703;28;20206;-74
2023/03/02 08:51:06;;;;;;;0.97;0.97;;;8.20;90.40;;;;;;5029200;28;20214;-74
2023/03/02 08:53:35;;;;;;;1.17;1.13;;;8.30;90.40;;;;;;5023190;28;20206;-75
2023/03/02 08:56:01;;;;;;;0.97;0.90;;;8.20;89.70;;;;;;5031503;28;20575;-74
2023/03/02 08:58:27;;;;;;;0.80;0.80;;;8.20;89.70;;;;;;5024964;28;20188;-74
2023/03/02 09:00:53;;;;;;;1.03;1.03;;;8.20;90.20;;;;;;5028487;28;20190;-75
2023/03/02 09:03:19;;;;;;;0.97;0.97;;;8.30;90.20;;;;;;5032037;28;20184;-75
2023/03/02 09:05:45;;;;;;;1.17;1.00;;;8.30;90.10;;;;;;5030262;28;20180;-75
2023/03/02 09:08:11;;;;;;;1.00;1.00;;;8.40;89.60;;;;;;5027552;28;20302;-76
2023/03/02 09:10:38;;;;;;;1.03;1.03;;;8.50;89.50;;;;;;5026818;28;20695;-73
2023/03/02 09:13:04;;;;;;;0.93;0.93;;;8.50;89.40;;;;;;5031026;28;20646;-73
2023/03/02 09:15:30;;;;;;;1.13;1.03;;;8.60;89.40;;;;;;5032156;28;20187;-75
2023/03/02 09:17:56;;;;;;;1.40;1.30;;;8.80;89.50;;;;;;5028605;28;20184;-75
2023/03/02 09:20:22;;;;;;;1.10;1.00;;;8.90;89.30;;;;;;5029808;28;20323;-75
2023/03/02 09:22:49;;;;;;;1.13;1.13;;;9.00;89.10;;;;;;5034206;28;20668;-75
2023/03/02 09:25:17;;;;;;;1.10;1.10;;;9.10;88.40;;;;;;5033948;28;20263;-76
2023/03/02 09:27:43;;;;;;;1.10;1.10;;;9.00;87.60;;;;;;5038846;28;20180;-75
2023/03/02 09:30:10;;;;;;;1.27;1.17;;;9.10;88.00;;;;;;5040818;28;20184;-76
2023/03/02 09:32:36;;;;;;;1.30;1.10;;;9.10;87.80;;;;;;5031387;28;20203;-74
2023/03/02 09:35:02;;;;;;;1.13;1.13;;;9.10;88.20;;;;;;5035027;28;20215;-75
2023/03/02 09:37:28;;;;;;;1.27;1.27;;;9.20;88.20;;;;;;5028811;28;20577;-74
2023/03/02 09:39:54;;;;;;;0.97;0.97;;;9.20;87.80;;;;;;5027175;28;20202;-73
2023/03/02 09:43:06;;;;;;;1.37;1.03;;;9.40;87.90;;;;;;5028348;28;21045;-74
2023/03/02 09:45:50;;;;;;;0.80;0.80;;;9.50;87.20;;;;;;5003089;28;20197;-74
2023/03/02 09:48:21;;;;;;;0.83;0.83;;;9.50;87.00;;;;;;5006000;28;20243;-74
2023/03/02 09:51:31;;;;;;;1.50;1.38;;;9.60;87.00;;;;;;5005641;28;20200;-74
2023/03/02 09:54:08;;;;;;;1.50;1.40;;;9.70;86.30;;;;;;5003658;28;20813;-73
2023/03/02 09:56:46;;;;;;;1.42;1.33;;;9.70;86.10;;;;;;5006822;28;20275;-74
2023/03/02 09:59:23;;;;;;;1.40;1.30;;;9.70;86.10;;;;;;4988982;28;20315;-74
2023/03/02 10:02:25;;;;;;;1.30;1.30;;;9.60;85.60;;;;;;5000870;28;20204;-74
2023/03/02 10:04:54;;;;;;;1.10;1.10;;;9.60;86.40;;;;;;5006360;28;20184;-75
2023/03/02 10:07:32;;;;;;;0.93;0.93;;;9.60;86.20;;;;;;5006140;28;20192;-75
2023/03/02 10:10:24;;;;;;;1.40;0.80;;;9.60;85.60;;;;;;4990415;28;20232;-74
2023/03/02 10:13:09;;;;;;;0.95;0.95;;;9.70;85.30;;;;;;4906469;29;20641;-75
2023/03/02 10:15:39;;;;;;;0.90;0.90;;;9.60;85.20;;;;;;4905366;29;20582;-74
2023/03/02 10:18:22;;;;;;;1.00;1.00;;;9.50;85.10;;;;;;4900138;29;20260;-74
2023/03/02 10:20:53;;;;;;;1.13;1.00;;;9.40;84.40;;;;;;4895000;29;20212;-74
2023/03/02 10:23:41;;;;;;;0.90;0.90;;;9.20;85.10;;;;;;4933829;28;20211;-74
2023/03/02 10:26:22;;;;;;;0.63;0.60;;;9.20;85.30;;;;;;4934567;28;20217;-75
2023/03/02 10:28:51;;;;;;;1.07;1.07;;;9.00;86.00;;;;;;4934145;28;20241;-75
2023/03/02 10:31:32;;;;;;;0.83;0.83;;;9.00;85.90;;;;;;4933381;28;20254;-75
2023/03/02 10:33:58;;;;;;;0.80;0.80;;;9.00;86.10;;;;;;4934324;28;20210;-72
2023/03/02 10:36:29;;;;;;;1.47;0.90;;;9.10;86.30;;;;;;4940268;28;20247;-73
2023/03/02 10:38:57;;;;;;;1.30;0.95;;;9.10;86.00;;;;;;4944068;29;20281;-74
2023/03/02 10:41:31;;;;;;;0.63;0.63;;;9.10;85.80;;;;;;4944247;28;20187;-74
2023/03/02 10:44:03;;;;;;;0.77;0.77;;;9.20;85.20;;;;;;4943974;28;20286;-74
2023/03/02 10:46:42;;;;;;;0.80;0.80;;;9.00;85.40;;;;;;4941921;28;20740;-75
2023/03/02 10:49:32;;;;;;;3.47;0.97;;;9.00;85.30;;;;;;4939305;28;20606;-72
2023/03/02 10:52:05;;;;;;;3.17;1.13;;;9.10;85.50;;;;;;5024505;28;20327;-74
2023/03/02 10:54:33;;;;;;;0.80;0.80;;;9.00;85.20;;;;;;5022016;28;20250;-74
2023/03/02 10:57:05;;;;;;;1.10;1.10;;;9.00;85.30;;;;;;5021028;28;20286;-74
2023/03/02 10:59:39;;;;;;;0.80;0.80;;;8.90;85.40;;;;;;5025501;28;20215;-75
2023/03/02 11:02:23;;;;;;;2.50;0.63;;;8.80;84.80;;;;;;5023903;28;20213;-75
2023/03/02 11:04:57;;;;;;;0.67;0.60;;;8.70;85.90;;;;;;5020207;28;20207;-75
2023/03/02 11:07:27;;;;;;;0.80;0.80;;;8.80;85.70;;;;;;5021144;28;20269;-75
2023/03/02 11:10:02;;;;;;;0.90;0.90;;;8.80;86.40;;;;;;5021860;28;20692;-75
2023/03/02 11:12:29;;;;;;;0.90;0.87;;;8.90;86.30;;;;;;5019104;28;20286;-75
2023/03/02 11:15:13;;;;;;;0.97;0.97;;;9.10;86.00;;;;;;5019903;28;20220;-75
2023/03/02 11:17:40;;;;;;;0.60;0.60;;;9.20;85.40;;;;;;5026636;28;20290;-75
2023/03/02 11:20:15;;;;;;;0.65;0.65;;;9.40;84.90;;;;;;5020383;28;20266;-76
2023/03/02 11:23:14;;;;;;;0.63;0.63;;;9.50;84.20;;;;;;5027151;28;20571;-74
2023/03/02 11:25:55;;;;;;;0.85;0.85;;;9.60;83.70;;;;;;5021263;28;20200;-73
2023/03/02 11:28:44;;;;;;;1.17;1.13;;;9.60;83.60;;;;;;5017537;28;20370;-73
2023/03/02 11:31:26;;;;;;;1.05;0.70;;;9.70;83.40;;;;;;5010565;28;20231;-74
2023/03/02 11:34:20;;;;;;;0.52;0.52;;;9.70;83.00;;;;;;5008727;28;20211;-77
2023/03/02 11:36:54;;;;;;;0.77;0.77;;;9.70;83.10;;;;;;5008799;28;20331;-76
2023/03/02 11:39:28;;;;;;;1.00;1.00;;;9.70;83.00;;;;;;5008321;28;20211;-76
2023/03/02 11:41:53;;;;;;;0.70;0.70;;;9.70;82.50;;;;;;5008743;28;20216;-76
2023/03/02 11:44:20;;;;;;;1.30;1.20;;;9.70;82.60;;;;;;5009317;28;20219;-74
2023/03/02 11:46:49;;;;;;;0.93;0.80;;;9.70;82.80;;;;;;5007598;28;20204;-76
2023/03/02 11:49:23;;;;;;;0.95;0.93;;;9.70;82.60;;;;;;5006473;28;20330;-76
2023/03/02 11:51:59;;;;;;;1.80;0.80;;;9.70;82.10;;;;;;4991053;28;20315;-77
2023/03/02 11:54:42;;;;;;;1.00;0.70;;;9.70;82.80;;;;;;4991425;28;20211;-77
2023/03/02 11:57:22;;;;;;;1.30;0.88;;;9.70;82.80;;;;;;5009406;28;20250;-75
2023/03/02 11:59:49;;;;;;;1.00;0.75;;;9.70;82.70;;;;;;5007609;28;20243;-76
2023/03/02 12:02:15;;;;;;;0.68;0.68;;;9.70;82.30;;;;;;5010866;28;20211;-77
2023/03/02 12:04:41;;;;;;;0.65;0.65;;;9.70;82.50;;;;;;5015375;28;20219;-75
2023/03/02 12:07:21;;;;;;;0.80;0.80;;;9.60;82.40;;;;;;5020168;28;20246;-76
2023/03/02 12:10:01;;;;;;;1.02;1.02;;;9.50;82.40;;;;;;5021061;28;20220;-75
2023/03/02 12:12:35;;;;;;;1.05;1.05;;;9.60;82.90;;;;;;5018045;28;20298;-76
2023/03/02 12:15:01;;;;;;;1.27;1.17;;;9.50;82.70;;;;;;5022697;28;20951;-76
2023/03/02 12:17:26;;;;;;;0.85;0.85;;;9.50;82.80;;;;;;5018218;28;20204;-75
2023/03/02 12:20:22;;;;;;;0.57;0.57;;;9.40;82.70;;;;;;5015740;28;20212;-75
2023/03/02 12:22:48;;;;;;;5.05;1.02;;;9.30;83.30;;;;;;5017989;28;20211;-75
2023/03/02 12:25:19;;;;;;;2.35;1.02;;;9.20;83.60;;;;;;5018608;28;20205;-76
2023/03/02 12:27:47;;;;;;;0.70;0.70;;;9.20;83.60;;;;;;5022993;28;20315;-77
2023/03/02 12:30:22;;;;;;;0.77;0.75;;;9.30;83.70;;;;;;5022737;28;20204;-76
2023/03/02 12:33:10;;;;;;;0.70;0.70;;;9.30;83.50;;;;;;5014221;28;20211;-77
2023/03/02 12:35:37;;;;;;;0.88;0.88;;;9.40;83.20;;;;;;4987771;28;20366;-76
2023/03/02 12:38:25;;;;;;;0.57;0.57;;;9.50;83.50;;;;;;4993633;28;20228;-77
2023/03/02 12:41:30;;;;;;;0.80;0.80;;;9.60;82.80;;;;;;4971984;28;20638;-77
2023/03/02 12:44:22;;;;;;;1.95;0.47;;;9.70;82.50;;;;;;4991919;28;20299;-77
2023/03/02 12:46:48;;;;;;;1.85;0.80;;;9.90;82.10;;;;;;4990200;28;20247;-76
2023/03/02 12:49:18;;;;;;;2.95;0.75;;;10.10;81.40;;;;;;4986026;28;20216;-75
2023/03/02 12:51:54;;;;;;;2.58;0.55;;;10.10;80.70;;;;;;4986093;28;20205;-75
2023/03/02 12:54:31;;;;;;;0.70;0.70;;;10.10;81.30;;;;;;4986278;28;20287;-75
2023/03/02 12:57:13;;;;;;;0.85;0.75;;;10.20;81.60;;;;;;4972463;28;20290;-76
2023/03/02 12:59:39;;;;;;;0.70;0.70;;;10.20;81.30;;;;;;4988506;28;21227;-74
2023/03/02 13:02:18;;;;;;;0.88;0.70;;;10.20;81.20;;;;;;4986826;28;21496;-74
2023/03/02 13:04:55;;;;;;;0.68;0.65;;;10.30;81.10;;;;;;4987163;28;20209;-74
2023/03/02 13:07:38;;;;;;;2.47;0.77;;;10.30;80.80;;;;;;4989079;28;20693;-75
2023/03/02 13:10:40;;;;;;;2.88;1.05;;;10.40;80.80;;;;;;4989448;28;20228;-75
2023/03/02 13:13:18;;;;;;;0.60;0.57;;;10.50;80.60;;;;;;5010607;28;20215;-76